Terminal Aerodrome Forecast
Issued by NWS

Home | Current Version | Previous Version | Text Only | Print | Product List | Glossary On
Versions: 1 2 3 4 5 6 7 8 9 10 11 12 13
000
FTUS45 KGJT 280537
TAFCNY
TAF
KCNY 280537Z 2806/0106 21009KT P6SM VCSH FEW060 BKN070
     FM281100 31008KT P6SM OVC070
     FM282000 30012KT P6SM BKN060
     FM282100 31013KT P6SM SCT060
     FM010100 34013G22KT P6SM FEW250
     FM010300 33006KT P6SM FEW250=

USA.gov is the U.S. government's official web portal to all federal, state and local government web resources and services.